sensor_id;sensor_type;location;lat;lon;timestamp;P1;durP1;ratioP1;P2;durP2;ratioP2
25481;SDS011;13395;50.752;4.268;2023-03-21T00:02:16;10.98;;;5.88;;
25481;SDS011;13395;50.752;4.268;2023-03-21T00:04:42;10.90;;;5.45;;
25481;SDS011;13395;50.752;4.268;2023-03-21T00:07:07;12.40;;;5.95;;
25481;SDS011;13395;50.752;4.268;2023-03-21T00:09:33;13.38;;;6.38;;
25481;SDS011;13395;50.752;4.268;2023-03-21T00:11:59;9.52;;;6.00;;
25481;SDS011;13395;50.752;4.268;2023-03-21T00:14:25;9.88;;;5.03;;
25481;SDS011;13395;50.752;4.268;2023-03-21T00:16:54;16.02;;;6.55;;
25481;SDS011;13395;50.752;4.268;2023-03-21T00:19:20;11.80;;;6.78;;
25481;SDS011;13395;50.752;4.268;2023-03-21T00:21:46;12.30;;;5.95;;
25481;SDS011;13395;50.752;4.268;2023-03-21T00:24:14;10.20;;;5.10;;
25481;SDS011;13395;50.752;4.268;2023-03-21T00:26:39;9.32;;;4.65;;
25481;SDS011;13395;50.752;4.268;2023-03-21T00:29:05;11.30;;;4.60;;
25481;SDS011;13395;50.752;4.268;2023-03-21T00:31:31;12.15;;;5.22;;
25481;SDS011;13395;50.752;4.268;2023-03-21T00:33:56;11.38;;;4.65;;
25481;SDS011;13395;50.752;4.268;2023-03-21T00:36:22;12.20;;;4.72;;
25481;SDS011;13395;50.752;4.268;2023-03-21T00:38:50;12.00;;;4.38;;
25481;SDS011;13395;50.752;4.268;2023-03-21T00:41:15;12.82;;;4.28;;
25481;SDS011;13395;50.752;4.268;2023-03-21T00:43:41;10.75;;;4.18;;
25481;SDS011;13395;50.752;4.268;2023-03-21T00:46:07;10.20;;;4.55;;
25481;SDS011;13395;50.752;4.268;2023-03-21T00:48:33;11.27;;;3.95;;
25481;SDS011;13395;50.752;4.268;2023-03-21T00:50:58;14.38;;;4.13;;
25481;SDS011;13395;50.752;4.268;2023-03-21T00:53:24;9.98;;;3.90;;
25481;SDS011;13395;50.752;4.268;2023-03-21T00:55:51;11.32;;;4.90;;
25481;SDS011;13395;50.752;4.268;2023-03-21T00:58:17;10.05;;;4.05;;
25481;SDS011;13395;50.752;4.268;2023-03-21T01:00:43;16.20;;;4.22;;
25481;SDS011;13395;50.752;4.268;2023-03-21T01:03:11;13.40;;;4.97;;
25481;SDS011;13395;50.752;4.268;2023-03-21T01:05:40;10.48;;;4.75;;
25481;SDS011;13395;50.752;4.268;2023-03-21T01:08:30;15.25;;;3.97;;
25481;SDS011;13395;50.752;4.268;2023-03-21T01:11:02;14.13;;;5.00;;
25481;SDS011;13395;50.752;4.268;2023-03-21T01:13:30;13.02;;;4.63;;
25481;SDS011;13395;50.752;4.268;2023-03-21T01:15:56;10.48;;;4.32;;
25481;SDS011;13395;50.752;4.268;2023-03-21T01:18:25;14.13;;;4.90;;
25481;SDS011;13395;50.752;4.268;2023-03-21T01:20:57;9.40;;;4.53;;
25481;SDS011;13395;50.752;4.268;2023-03-21T01:23:24;15.50;;;4.43;;
25481;SDS011;13395;50.752;4.268;2023-03-21T01:25:51;14.63;;;4.43;;
25481;SDS011;13395;50.752;4.268;2023-03-21T01:28:18;12.38;;;4.45;;
25481;SDS011;13395;50.752;4.268;2023-03-21T01:30:48;10.73;;;4.82;;
25481;SDS011;13395;50.752;4.268;2023-03-21T01:33:15;18.48;;;5.65;;
25481;SDS011;13395;50.752;4.268;2023-03-21T01:35:42;11.10;;;4.90;;
25481;SDS011;13395;50.752;4.268;2023-03-21T01:38:08;12.85;;;5.25;;
25481;SDS011;13395;50.752;4.268;2023-03-21T01:40:34;13.73;;;5.60;;
25481;SDS011;13395;50.752;4.268;2023-03-21T01:43:01;13.80;;;5.90;;
25481;SDS011;13395;50.752;4.268;2023-03-21T01:48:23;16.23;;;5.90;;
25481;SDS011;13395;50.752;4.268;2023-03-21T01:50:52;12.32;;;5.45;;
25481;SDS011;13395;50.752;4.268;2023-03-21T01:53:19;14.73;;;6.13;;
25481;SDS011;13395;50.752;4.268;2023-03-21T01:55:48;16.45;;;5.60;;
25481;SDS011;13395;50.752;4.268;2023-03-21T01:58:14;15.32;;;5.28;;
25481;SDS011;13395;50.752;4.268;2023-03-21T02:00:43;18.92;;;5.13;;
25481;SDS011;13395;50.752;4.268;2023-03-21T02:03:10;13.70;;;5.47;;
25481;SDS011;13395;50.752;4.268;2023-03-21T02:08:15;21.95;;;4.80;;
25481;SDS011;13395;50.752;4.268;2023-03-21T02:10:41;11.60;;;4.90;;
25481;SDS011;13395;50.752;4.268;2023-03-21T02:13:09;11.23;;;4.25;;
25481;SDS011;13395;50.752;4.268;2023-03-21T02:15:39;14.05;;;5.03;;
25481;SDS011;13395;50.752;4.268;2023-03-21T02:24:17;11.32;;;4.35;;
25481;SDS011;13395;50.752;4.268;2023-03-21T02:27:03;8.93;;;4.20;;
25481;SDS011;13395;50.752;4.268;2023-03-21T02:35:51;19.23;;;4.25;;
25481;SDS011;13395;50.752;4.268;2023-03-21T02:41:11;14.57;;;5.32;;
25481;SDS011;13395;50.752;4.268;2023-03-21T02:43:56;13.73;;;5.07;;
25481;SDS011;13395;50.752;4.268;2023-03-21T02:46:31;18.98;;;5.05;;
25481;SDS011;13395;50.752;4.268;2023-03-21T02:49:38;13.60;;;4.72;;
25481;SDS011;13395;50.752;4.268;2023-03-21T02:52:18;14.15;;;5.05;;
25481;SDS011;13395;50.752;4.268;2023-03-21T02:54:48;16.75;;;3.92;;
25481;SDS011;13395;50.752;4.268;2023-03-21T02:57:16;12.18;;;4.32;;
25481;SDS011;13395;50.752;4.268;2023-03-21T02:59:43;9.23;;;3.75;;
25481;SDS011;13395;50.752;4.268;2023-03-21T03:02:14;13.60;;;4.43;;
25481;SDS011;13395;50.752;4.268;2023-03-21T03:04:41;12.55;;;3.72;;
25481;SDS011;13395;50.752;4.268;2023-03-21T03:07:19;8.70;;;4.10;;
25481;SDS011;13395;50.752;4.268;2023-03-21T03:12:32;12.30;;;4.10;;
25481;SDS011;13395;50.752;4.268;2023-03-21T03:15:23;8.50;;;3.80;;
25481;SDS011;13395;50.752;4.268;2023-03-21T03:28:40;10.82;;;3.85;;
25481;SDS011;13395;50.752;4.268;2023-03-21T03:31:10;12.38;;;4.50;;
25481;SDS011;13395;50.752;4.268;2023-03-21T03:33:39;10.95;;;4.53;;
25481;SDS011;13395;50.752;4.268;2023-03-21T03:36:11;13.30;;;4.50;;
25481;SDS011;13395;50.752;4.268;2023-03-21T03:38:38;15.65;;;5.00;;
25481;SDS011;13395;50.752;4.268;2023-03-21T03:41:08;13.00;;;4.47;;
25481;SDS011;13395;50.752;4.268;2023-03-21T03:43:39;18.70;;;5.90;;
25481;SDS011;13395;50.752;4.268;2023-03-21T03:46:41;12.63;;;4.28;;
25481;SDS011;13395;50.752;4.268;2023-03-21T03:49:18;15.18;;;5.30;;
25481;SDS011;13395;50.752;4.268;2023-03-21T03:51:49;16.40;;;5.32;;
25481;SDS011;13395;50.752;4.268;2023-03-21T03:54:37;12.85;;;5.95;;
25481;SDS011;13395;50.752;4.268;2023-03-21T03:57:06;15.27;;;5.70;;
25481;SDS011;13395;50.752;4.268;2023-03-21T03:59:34;12.82;;;6.10;;
25481;SDS011;13395;50.752;4.268;2023-03-21T04:02:01;12.52;;;6.53;;
25481;SDS011;13395;50.752;4.268;2023-03-21T04:04:27;15.20;;;5.85;;
25481;SDS011;13395;50.752;4.268;2023-03-21T04:06:53;17.15;;;6.40;;
25481;SDS011;13395;50.752;4.268;2023-03-21T04:09:19;18.20;;;6.00;;
25481;SDS011;13395;50.752;4.268;2023-03-21T04:11:45;13.98;;;5.95;;
25481;SDS011;13395;50.752;4.268;2023-03-21T04:14:11;13.95;;;6.28;;
25481;SDS011;13395;50.752;4.268;2023-03-21T04:16:37;18.73;;;6.68;;
25481;SDS011;13395;50.752;4.268;2023-03-21T04:19:03;20.17;;;7.50;;
25481;SDS011;13395;50.752;4.268;2023-03-21T04:21:28;19.23;;;7.03;;
25481;SDS011;13395;50.752;4.268;2023-03-21T04:23:54;14.95;;;6.75;;
25481;SDS011;13395;50.752;4.268;2023-03-21T04:26:20;17.98;;;7.32;;
25481;SDS011;13395;50.752;4.268;2023-03-21T04:28:47;18.10;;;6.88;;
25481;SDS011;13395;50.752;4.268;2023-03-21T04:31:13;24.83;;;7.50;;
25481;SDS011;13395;50.752;4.268;2023-03-21T04:33:41;17.50;;;6.30;;
25481;SDS011;13395;50.752;4.268;2023-03-21T04:36:08;17.98;;;6.90;;
25481;SDS011;13395;50.752;4.268;2023-03-21T04:38:50;19.45;;;7.20;;
25481;SDS011;13395;50.752;4.268;2023-03-21T04:41:16;15.50;;;6.82;;
25481;SDS011;13395;50.752;4.268;2023-03-21T04:43:42;12.88;;;6.57;;
25481;SDS011;13395;50.752;4.268;2023-03-21T04:46:08;17.90;;;6.15;;
25481;SDS011;13395;50.752;4.268;2023-03-21T04:48:34;19.92;;;7.70;;
25481;SDS011;13395;50.752;4.268;2023-03-21T04:51:00;15.20;;;7.25;;
25481;SDS011;13395;50.752;4.268;2023-03-21T04:53:29;21.95;;;7.22;;
25481;SDS011;13395;50.752;4.268;2023-03-21T04:55:55;21.65;;;6.80;;
25481;SDS011;13395;50.752;4.268;2023-03-21T04:58:21;21.67;;;7.18;;
25481;SDS011;13395;50.752;4.268;2023-03-21T05:00:48;15.98;;;6.80;;
25481;SDS011;13395;50.752;4.268;2023-03-21T05:03:16;20.17;;;7.20;;
25481;SDS011;13395;50.752;4.268;2023-03-21T05:05:43;16.10;;;6.88;;
25481;SDS011;13395;50.752;4.268;2023-03-21T05:08:10;18.90;;;7.18;;
25481;SDS011;13395;50.752;4.268;2023-03-21T05:10:36;20.83;;;7.80;;
25481;SDS011;13395;50.752;4.268;2023-03-21T05:13:01;18.20;;;7.28;;
25481;SDS011;13395;50.752;4.268;2023-03-21T05:15:27;17.85;;;6.53;;
25481;SDS011;13395;50.752;4.268;2023-03-21T05:17:53;16.33;;;6.85;;
25481;SDS011;13395;50.752;4.268;2023-03-21T05:20:19;19.40;;;5.95;;
25481;SDS011;13395;50.752;4.268;2023-03-21T05:22:44;14.18;;;6.32;;
25481;SDS011;13395;50.752;4.268;2023-03-21T05:25:14;14.57;;;5.93;;
25481;SDS011;13395;50.752;4.268;2023-03-21T05:27:42;14.13;;;5.78;;
25481;SDS011;13395;50.752;4.268;2023-03-21T05:30:18;20.88;;;5.85;;
25481;SDS011;13395;50.752;4.268;2023-03-21T05:32:44;15.35;;;5.50;;
25481;SDS011;13395;50.752;4.268;2023-03-21T05:35:10;23.67;;;5.80;;
25481;SDS011;13395;50.752;4.268;2023-03-21T05:37:36;13.55;;;6.13;;
25481;SDS011;13395;50.752;4.268;2023-03-21T05:40:02;9.85;;;6.22;;
25481;SDS011;13395;50.752;4.268;2023-03-21T05:42:31;14.40;;;5.45;;
25481;SDS011;13395;50.752;4.268;2023-03-21T05:44:57;10.90;;;5.50;;
25481;SDS011;13395;50.752;4.268;2023-03-21T05:47:22;20.17;;;6.32;;
25481;SDS011;13395;50.752;4.268;2023-03-21T05:49:48;23.65;;;6.32;;
25481;SDS011;13395;50.752;4.268;2023-03-21T05:52:14;17.42;;;5.90;;
25481;SDS011;13395;50.752;4.268;2023-03-21T05:54:40;12.93;;;6.05;;
25481;SDS011;13395;50.752;4.268;2023-03-21T05:57:06;15.43;;;6.47;;
25481;SDS011;13395;50.752;4.268;2023-03-21T05:59:32;12.73;;;6.72;;
25481;SDS011;13395;50.752;4.268;2023-03-21T06:01:58;14.38;;;6.35;;
25481;SDS011;13395;50.752;4.268;2023-03-21T06:04:23;17.13;;;5.55;;
25481;SDS011;13395;50.752;4.268;2023-03-21T06:06:49;13.93;;;6.25;;
25481;SDS011;13395;50.752;4.268;2023-03-21T06:09:17;13.30;;;5.85;;
25481;SDS011;13395;50.752;4.268;2023-03-21T06:11:45;14.35;;;6.75;;
25481;SDS011;13395;50.752;4.268;2023-03-21T06:14:13;14.23;;;7.10;;
25481;SDS011;13395;50.752;4.268;2023-03-21T06:16:39;18.27;;;6.55;;
25481;SDS011;13395;50.752;4.268;2023-03-21T06:19:04;18.70;;;8.60;;
25481;SDS011;13395;50.752;4.268;2023-03-21T06:21:30;18.48;;;7.53;;
25481;SDS011;13395;50.752;4.268;2023-03-21T06:23:56;18.92;;;8.50;;
25481;SDS011;13395;50.752;4.268;2023-03-21T06:26:21;13.38;;;6.38;;
25481;SDS011;13395;50.752;4.268;2023-03-21T06:28:48;18.08;;;7.00;;
25481;SDS011;13395;50.752;4.268;2023-03-21T06:31:14;15.13;;;6.75;;
25481;SDS011;13395;50.752;4.268;2023-03-21T06:33:40;13.13;;;6.20;;
25481;SDS011;13395;50.752;4.268;2023-03-21T06:36:06;12.23;;;6.47;;
25481;SDS011;13395;50.752;4.268;2023-03-21T06:38:32;16.90;;;6.70;;
25481;SDS011;13395;50.752;4.268;2023-03-21T06:41:01;11.10;;;5.45;;
25481;SDS011;13395;50.752;4.268;2023-03-21T06:43:28;14.90;;;6.53;;
25481;SDS011;13395;50.752;4.268;2023-03-21T06:45:55;7.80;;;4.50;;
25481;SDS011;13395;50.752;4.268;2023-03-21T06:48:21;12.02;;;4.75;;
25481;SDS011;13395;50.752;4.268;2023-03-21T06:50:47;10.20;;;4.10;;
25481;SDS011;13395;50.752;4.268;2023-03-21T06:53:14;15.15;;;4.00;;
25481;SDS011;13395;50.752;4.268;2023-03-21T06:55:40;12.82;;;4.20;;
25481;SDS011;13395;50.752;4.268;2023-03-21T06:58:06;9.32;;;4.50;;
25481;SDS011;13395;50.752;4.268;2023-03-21T07:00:31;8.63;;;3.90;;
25481;SDS011;13395;50.752;4.268;2023-03-21T07:02:57;10.88;;;3.47;;
25481;SDS011;13395;50.752;4.268;2023-03-21T07:05:23;8.35;;;4.05;;
25481;SDS011;13395;50.752;4.268;2023-03-21T07:07:49;10.52;;;3.30;;
25481;SDS011;13395;50.752;4.268;2023-03-21T07:10:14;11.30;;;3.90;;
25481;SDS011;13395;50.752;4.268;2023-03-21T07:12:41;5.30;;;3.15;;
25481;SDS011;13395;50.752;4.268;2023-03-21T07:15:07;8.60;;;3.22;;
25481;SDS011;13395;50.752;4.268;2023-03-21T07:17:33;6.32;;;3.03;;
25481;SDS011;13395;50.752;4.268;2023-03-21T07:19:59;8.05;;;2.92;;
25481;SDS011;13395;50.752;4.268;2023-03-21T07:22:25;4.82;;;2.28;;
25481;SDS011;13395;50.752;4.268;2023-03-21T07:24:50;5.85;;;3.63;;
25481;SDS011;13395;50.752;4.268;2023-03-21T07:27:17;8.80;;;3.42;;
25481;SDS011;13395;50.752;4.268;2023-03-21T07:29:42;7.90;;;2.97;;
25481;SDS011;13395;50.752;4.268;2023-03-21T07:32:09;5.75;;;2.85;;
25481;SDS011;13395;50.752;4.268;2023-03-21T07:34:35;10.80;;;2.67;;
25481;SDS011;13395;50.752;4.268;2023-03-21T07:37:02;8.95;;;3.08;;
25481;SDS011;13395;50.752;4.268;2023-03-21T07:39:28;6.25;;;3.08;;
25481;SDS011;13395;50.752;4.268;2023-03-21T07:41:54;9.98;;;3.60;;
25481;SDS011;13395;50.752;4.268;2023-03-21T07:44:20;10.80;;;3.00;;
25481;SDS011;13395;50.752;4.268;2023-03-21T07:46:46;10.27;;;3.85;;
25481;SDS011;13395;50.752;4.268;2023-03-21T07:49:12;10.65;;;3.03;;
25481;SDS011;13395;50.752;4.268;2023-03-21T07:51:38;11.52;;;3.70;;
25481;SDS011;13395;50.752;4.268;2023-03-21T07:54:03;7.57;;;3.47;;
25481;SDS011;13395;50.752;4.268;2023-03-21T07:56:29;12.55;;;3.80;;
25481;SDS011;13395;50.752;4.268;2023-03-21T07:58:55;13.50;;;3.95;;
25481;SDS011;13395;50.752;4.268;2023-03-21T08:01:21;10.55;;;3.72;;
25481;SDS011;13395;50.752;4.268;2023-03-21T08:03:47;9.10;;;3.83;;
25481;SDS011;13395;50.752;4.268;2023-03-21T08:06:15;7.28;;;3.65;;
25481;SDS011;13395;50.752;4.268;2023-03-21T08:08:41;10.60;;;4.07;;
25481;SDS011;13395;50.752;4.268;2023-03-21T08:11:06;12.32;;;4.38;;
25481;SDS011;13395;50.752;4.268;2023-03-21T08:13:32;10.32;;;3.95;;
25481;SDS011;13395;50.752;4.268;2023-03-21T08:15:58;10.40;;;4.13;;
25481;SDS011;13395;50.752;4.268;2023-03-21T08:18:23;10.95;;;4.10;;
25481;SDS011;13395;50.752;4.268;2023-03-21T08:20:52;9.25;;;3.25;;
25481;SDS011;13395;50.752;4.268;2023-03-21T08:23:19;5.82;;;3.72;;
25481;SDS011;13395;50.752;4.268;2023-03-21T08:25:45;12.85;;;4.50;;
25481;SDS011;13395;50.752;4.268;2023-03-21T08:28:15;14.07;;;4.45;;
25481;SDS011;13395;50.752;4.268;2023-03-21T08:30:41;9.63;;;3.50;;
25481;SDS011;13395;50.752;4.268;2023-03-21T08:33:07;13.57;;;4.57;;
25481;SDS011;13395;50.752;4.268;2023-03-21T08:35:33;10.52;;;3.42;;
25481;SDS011;13395;50.752;4.268;2023-03-21T08:38:00;7.45;;;3.25;;
25481;SDS011;13395;50.752;4.268;2023-03-21T08:40:27;10.40;;;3.90;;
25481;SDS011;13395;50.752;4.268;2023-03-21T08:42:53;9.57;;;3.15;;
25481;SDS011;13395;50.752;4.268;2023-03-21T08:45:19;10.65;;;3.78;;
25481;SDS011;13395;50.752;4.268;2023-03-21T08:47:45;10.90;;;3.90;;
25481;SDS011;13395;50.752;4.268;2023-03-21T08:50:12;7.55;;;4.18;;
25481;SDS011;13395;50.752;4.268;2023-03-21T08:52:40;7.05;;;3.25;;
25481;SDS011;13395;50.752;4.268;2023-03-21T08:55:06;9.25;;;3.08;;
25481;SDS011;13395;50.752;4.268;2023-03-21T08:57:33;11.60;;;3.80;;
25481;SDS011;13395;50.752;4.268;2023-03-21T08:59:58;6.38;;;3.20;;
25481;SDS011;13395;50.752;4.268;2023-03-21T09:02:24;6.68;;;3.05;;
25481;SDS011;13395;50.752;4.268;2023-03-21T09:04:50;7.57;;;2.50;;
25481;SDS011;13395;50.752;4.268;2023-03-21T09:07:22;8.68;;;2.80;;
25481;SDS011;13395;50.752;4.268;2023-03-21T09:09:49;8.13;;;3.20;;
25481;SDS011;13395;50.752;4.268;2023-03-21T09:12:17;10.93;;;3.15;;
25481;SDS011;13395;50.752;4.268;2023-03-21T09:14:43;7.00;;;2.90;;
25481;SDS011;13395;50.752;4.268;2023-03-21T09:17:08;8.52;;;3.38;;
25481;SDS011;13395;50.752;4.268;2023-03-21T09:19:34;12.40;;;3.28;;
25481;SDS011;13395;50.752;4.268;2023-03-21T09:22:00;8.00;;;3.47;;
25481;SDS011;13395;50.752;4.268;2023-03-21T09:24:26;8.15;;;3.00;;
25481;SDS011;13395;50.752;4.268;2023-03-21T09:26:52;5.07;;;2.65;;
25481;SDS011;13395;50.752;4.268;2023-03-21T09:29:17;9.27;;;3.10;;
25481;SDS011;13395;50.752;4.268;2023-03-21T09:31:45;5.28;;;2.83;;
25481;SDS011;13395;50.752;4.268;2023-03-21T09:34:11;7.55;;;3.67;;
25481;SDS011;13395;50.752;4.268;2023-03-21T09:36:39;6.50;;;3.05;;
25481;SDS011;13395;50.752;4.268;2023-03-21T09:39:06;6.68;;;2.70;;
25481;SDS011;13395;50.752;4.268;2023-03-21T09:44:44;7.47;;;3.60;;
25481;SDS011;13395;50.752;4.268;2023-03-21T09:47:23;10.07;;;3.58;;
25481;SDS011;13395;50.752;4.268;2023-03-21T09:50:01;8.40;;;3.33;;
25481;SDS011;13395;50.752;4.268;2023-03-21T09:52:36;8.73;;;2.88;;
25481;SDS011;13395;50.752;4.268;2023-03-21T09:55:12;7.60;;;3.03;;
25481;SDS011;13395;50.752;4.268;2023-03-21T09:57:46;7.07;;;2.60;;
25481;SDS011;13395;50.752;4.268;2023-03-21T10:00:19;6.50;;;3.13;;
25481;SDS011;13395;50.752;4.268;2023-03-21T10:02:53;5.78;;;3.10;;
25481;SDS011;13395;50.752;4.268;2023-03-21T10:05:28;7.17;;;2.77;;
25481;SDS011;13395;50.752;4.268;2023-03-21T10:11:01;7.95;;;3.03;;
25481;SDS011;13395;50.752;4.268;2023-03-21T10:13:34;7.85;;;3.55;;
25481;SDS011;13395;50.752;4.268;2023-03-21T10:16:11;7.22;;;3.08;;
25481;SDS011;13395;50.752;4.268;2023-03-21T10:18:40;7.22;;;3.33;;
25481;SDS011;13395;50.752;4.268;2023-03-21T10:21:10;8.40;;;3.55;;
25481;SDS011;13395;50.752;4.268;2023-03-21T10:23:42;6.72;;;2.85;;
25481;SDS011;13395;50.752;4.268;2023-03-21T10:26:07;9.40;;;3.75;;
25481;SDS011;13395;50.752;4.268;2023-03-21T10:28:37;9.57;;;3.50;;
25481;SDS011;13395;50.752;4.268;2023-03-21T10:31:07;10.80;;;2.88;;
25481;SDS011;13395;50.752;4.268;2023-03-21T10:33:35;12.85;;;4.10;;
25481;SDS011;13395;50.752;4.268;2023-03-21T10:36:10;7.75;;;3.17;;
25481;SDS011;13395;50.752;4.268;2023-03-21T10:38:48;9.02;;;3.75;;
25481;SDS011;13395;50.752;4.268;2023-03-21T10:41:17;15.30;;;3.72;;
25481;SDS011;13395;50.752;4.268;2023-03-21T10:43:45;7.85;;;4.00;;
25481;SDS011;13395;50.752;4.268;2023-03-21T10:46:27;5.25;;;3.40;;
25481;SDS011;13395;50.752;4.268;2023-03-21T10:48:53;6.82;;;3.38;;
25481;SDS011;13395;50.752;4.268;2023-03-21T10:51:19;11.63;;;3.95;;
25481;SDS011;13395;50.752;4.268;2023-03-21T10:53:51;7.50;;;3.17;;
25481;SDS011;13395;50.752;4.268;2023-03-21T10:56:22;8.60;;;3.78;;
25481;SDS011;13395;50.752;4.268;2023-03-21T10:58:50;11.63;;;4.18;;
25481;SDS011;13395;50.752;4.268;2023-03-21T11:01:27;9.05;;;3.88;;
25481;SDS011;13395;50.752;4.268;2023-03-21T11:03:59;7.68;;;3.60;;
25481;SDS011;13395;50.752;4.268;2023-03-21T11:06:30;6.65;;;3.60;;
25481;SDS011;13395;50.752;4.268;2023-03-21T11:09:03;7.25;;;3.83;;
25481;SDS011;13395;50.752;4.268;2023-03-21T11:11:39;12.75;;;3.85;;
25481;SDS011;13395;50.752;4.268;2023-03-21T11:14:27;9.80;;;3.53;;
25481;SDS011;13395;50.752;4.268;2023-03-21T11:16:56;10.27;;;3.53;;
25481;SDS011;13395;50.752;4.268;2023-03-21T11:19:29;11.93;;;4.75;;
25481;SDS011;13395;50.752;4.268;2023-03-21T11:21:57;12.63;;;3.42;;
25481;SDS011;13395;50.752;4.268;2023-03-21T11:24:28;5.80;;;3.55;;
25481;SDS011;13395;50.752;4.268;2023-03-21T11:26:55;6.22;;;3.00;;
25481;SDS011;13395;50.752;4.268;2023-03-21T11:29:26;7.50;;;4.15;;
25481;SDS011;13395;50.752;4.268;2023-03-21T11:32:12;7.65;;;3.10;;
25481;SDS011;13395;50.752;4.268;2023-03-21T11:37:19;8.15;;;3.92;;
25481;SDS011;13395;50.752;4.268;2023-03-21T11:42:49;12.25;;;4.03;;
25481;SDS011;13395;50.752;4.268;2023-03-21T11:45:21;8.20;;;3.22;;
25481;SDS011;13395;50.752;4.268;2023-03-21T11:47:47;8.85;;;4.05;;
25481;SDS011;13395;50.752;4.268;2023-03-21T11:50:16;11.63;;;3.65;;
25481;SDS011;13395;50.752;4.268;2023-03-21T12:09:02;8.90;;;3.53;;
25481;SDS011;13395;50.752;4.268;2023-03-21T12:14:23;9.02;;;3.38;;
25481;SDS011;13395;50.752;4.268;2023-03-21T12:24:55;10.52;;;3.53;;
25481;SDS011;13395;50.752;4.268;2023-03-21T12:40:20;9.02;;;4.13;;
25481;SDS011;13395;50.752;4.268;2023-03-21T12:43:12;10.18;;;3.53;;
25481;SDS011;13395;50.752;4.268;2023-03-21T12:46:07;11.65;;;3.70;;
25481;SDS011;13395;50.752;4.268;2023-03-21T12:48:59;9.70;;;4.38;;
25481;SDS011;13395;50.752;4.268;2023-03-21T12:51:30;7.85;;;3.78;;
25481;SDS011;13395;50.752;4.268;2023-03-21T13:05:05;6.82;;;3.28;;
25481;SDS011;13395;50.752;4.268;2023-03-21T13:10:26;7.28;;;3.25;;
25481;SDS011;13395;50.752;4.268;2023-03-21T13:12:55;10.45;;;3.67;;
25481;SDS011;13395;50.752;4.268;2023-03-21T13:15:27;5.22;;;3.80;;
25481;SDS011;13395;50.752;4.268;2023-03-21T13:18:11;9.27;;;3.65;;
25481;SDS011;13395;50.752;4.268;2023-03-21T13:21:03;4.95;;;3.33;;
25481;SDS011;13395;50.752;4.268;2023-03-21T13:23:43;6.00;;;2.58;;
25481;SDS011;13395;50.752;4.268;2023-03-21T13:26:30;6.43;;;2.70;;
25481;SDS011;13395;50.752;4.268;2023-03-21T13:29:19;3.83;;;2.28;;
25481;SDS011;13395;50.752;4.268;2023-03-21T13:31:47;6.47;;;2.45;;
25481;SDS011;13395;50.752;4.268;2023-03-21T13:34:13;6.68;;;3.10;;
25481;SDS011;13395;50.752;4.268;2023-03-21T13:36:39;7.50;;;3.72;;
25481;SDS011;13395;50.752;4.268;2023-03-21T13:39:13;7.25;;;3.03;;
25481;SDS011;13395;50.752;4.268;2023-03-21T13:42:04;4.88;;;3.00;;
25481;SDS011;13395;50.752;4.268;2023-03-21T13:44:42;6.53;;;2.90;;
25481;SDS011;13395;50.752;4.268;2023-03-21T13:50:13;8.60;;;3.85;;
25481;SDS011;13395;50.752;4.268;2023-03-21T13:52:41;7.28;;;2.75;;
25481;SDS011;13395;50.752;4.268;2023-03-21T13:55:14;8.82;;;3.00;;
25481;SDS011;13395;50.752;4.268;2023-03-21T13:57:45;5.03;;;2.72;;
25481;SDS011;13395;50.752;4.268;2023-03-21T14:02:50;7.75;;;3.50;;
25481;SDS011;13395;50.752;4.268;2023-03-21T14:05:35;4.53;;;3.15;;
25481;SDS011;13395;50.752;4.268;2023-03-21T14:08:04;11.95;;;4.03;;
25481;SDS011;13395;50.752;4.268;2023-03-21T14:10:41;6.72;;;3.88;;
25481;SDS011;13395;50.752;4.268;2023-03-21T14:13:10;6.53;;;4.30;;
25481;SDS011;13395;50.752;4.268;2023-03-21T14:18:15;11.55;;;4.22;;
25481;SDS011;13395;50.752;4.268;2023-03-21T14:20:50;10.43;;;4.88;;
25481;SDS011;13395;50.752;4.268;2023-03-21T14:23:20;9.63;;;4.57;;
25481;SDS011;13395;50.752;4.268;2023-03-21T14:25:46;9.90;;;5.43;;
25481;SDS011;13395;50.752;4.268;2023-03-21T14:28:20;7.60;;;4.55;;
25481;SDS011;13395;50.752;4.268;2023-03-21T14:30:50;7.32;;;5.20;;
25481;SDS011;13395;50.752;4.268;2023-03-21T14:33:30;10.27;;;5.43;;
25481;SDS011;13395;50.752;4.268;2023-03-21T14:36:22;9.23;;;5.50;;
25481;SDS011;13395;50.752;4.268;2023-03-21T14:39:04;7.45;;;5.05;;
25481;SDS011;13395;50.752;4.268;2023-03-21T14:41:50;12.13;;;5.25;;
25481;SDS011;13395;50.752;4.268;2023-03-21T14:46:59;11.55;;;4.60;;
25481;SDS011;13395;50.752;4.268;2023-03-21T14:51:54;6.35;;;4.55;;
25481;SDS011;13395;50.752;4.268;2023-03-21T14:54:22;10.43;;;4.63;;
25481;SDS011;13395;50.752;4.268;2023-03-21T14:56:51;7.15;;;5.22;;
25481;SDS011;13395;50.752;4.268;2023-03-21T14:59:22;7.97;;;5.35;;
25481;SDS011;13395;50.752;4.268;2023-03-21T15:01:52;6.20;;;5.18;;
25481;SDS011;13395;50.752;4.268;2023-03-21T15:04:18;9.60;;;5.57;;
25481;SDS011;13395;50.752;4.268;2023-03-21T15:06:55;7.75;;;5.38;;
25481;SDS011;13395;50.752;4.268;2023-03-21T15:09:27;8.10;;;5.32;;
25481;SDS011;13395;50.752;4.268;2023-03-21T15:11:55;8.50;;;5.93;;
25481;SDS011;13395;50.752;4.268;2023-03-21T15:14:23;12.70;;;5.57;;
25481;SDS011;13395;50.752;4.268;2023-03-21T15:16:52;9.43;;;5.30;;
25481;SDS011;13395;50.752;4.268;2023-03-21T15:19:19;12.40;;;5.72;;
25481;SDS011;13395;50.752;4.268;2023-03-21T15:21:52;8.02;;;5.47;;
25481;SDS011;13395;50.752;4.268;2023-03-21T15:24:27;9.85;;;5.63;;
25481;SDS011;13395;50.752;4.268;2023-03-21T15:27:00;9.00;;;5.47;;
25481;SDS011;13395;50.752;4.268;2023-03-21T15:29:29;12.27;;;6.18;;
25481;SDS011;13395;50.752;4.268;2023-03-21T15:31:56;8.60;;;5.47;;
25481;SDS011;13395;50.752;4.268;2023-03-21T15:34:25;11.05;;;6.20;;
25481;SDS011;13395;50.752;4.268;2023-03-21T15:36:58;9.82;;;6.45;;
25481;SDS011;13395;50.752;4.268;2023-03-21T15:39:29;10.50;;;6.93;;
25481;SDS011;13395;50.752;4.268;2023-03-21T15:42:03;12.60;;;7.28;;
25481;SDS011;13395;50.752;4.268;2023-03-21T15:44:46;10.75;;;7.78;;
25481;SDS011;13395;50.752;4.268;2023-03-21T15:47:15;14.73;;;7.97;;
25481;SDS011;13395;50.752;4.268;2023-03-21T15:49:59;18.30;;;8.20;;
25481;SDS011;13395;50.752;4.268;2023-03-21T15:52:32;14.38;;;7.47;;
25481;SDS011;13395;50.752;4.268;2023-03-21T15:54:58;13.18;;;7.50;;
25481;SDS011;13395;50.752;4.268;2023-03-21T15:57:30;11.82;;;7.25;;
25481;SDS011;13395;50.752;4.268;2023-03-21T16:00:13;13.88;;;7.50;;
25481;SDS011;13395;50.752;4.268;2023-03-21T16:02:45;10.60;;;7.45;;
25481;SDS011;13395;50.752;4.268;2023-03-21T16:05:31;11.57;;;7.35;;
25481;SDS011;13395;50.752;4.268;2023-03-21T16:08:05;12.30;;;7.22;;
25481;SDS011;13395;50.752;4.268;2023-03-21T16:10:37;16.00;;;8.60;;
25481;SDS011;13395;50.752;4.268;2023-03-21T16:13:03;13.70;;;8.32;;
25481;SDS011;13395;50.752;4.268;2023-03-21T16:15:30;14.13;;;7.57;;
25481;SDS011;13395;50.752;4.268;2023-03-21T16:17:57;12.48;;;7.88;;
25481;SDS011;13395;50.752;4.268;2023-03-21T16:20:26;11.93;;;7.47;;
25481;SDS011;13395;50.752;4.268;2023-03-21T16:22:56;10.70;;;4.72;;
25481;SDS011;13395;50.752;4.268;2023-03-21T16:25:22;13.38;;;6.22;;
25481;SDS011;13395;50.752;4.268;2023-03-21T16:27:48;13.35;;;5.85;;
25481;SDS011;13395;50.752;4.268;2023-03-21T16:30:15;10.38;;;5.65;;
25481;SDS011;13395;50.752;4.268;2023-03-21T16:32:43;8.00;;;4.97;;
25481;SDS011;13395;50.752;4.268;2023-03-21T16:35:08;7.60;;;5.13;;
25481;SDS011;13395;50.752;4.268;2023-03-21T16:37:35;8.93;;;4.80;;
25481;SDS011;13395;50.752;4.268;2023-03-21T16:40:01;8.75;;;4.47;;
25481;SDS011;13395;50.752;4.268;2023-03-21T16:42:29;8.57;;;4.65;;
25481;SDS011;13395;50.752;4.268;2023-03-21T16:44:55;7.13;;;4.50;;
25481;SDS011;13395;50.752;4.268;2023-03-21T16:47:21;8.90;;;4.50;;
25481;SDS011;13395;50.752;4.268;2023-03-21T16:49:48;9.93;;;4.80;;